Time;durP1;ratioP1;P1;durP2;ratioP2;P2;SDS_P1;SDS_P2;PMS_P1;PMS_P2;Temp;Humidity;BMP_temperature;BMP_pressure;BME280_temperature;BME280_humidity;BME280_pressure;Samples;Min_cycle;Max_cycle;Signal;HPM_P1;HPM_P2
2021/06/22 00:02:02;;;;;;;5.43;1.60;;;15.60;99.90;;;;;;5126059;27;20011;-44
2021/06/22 00:04:28;;;;;;;1.85;1.65;;;15.60;99.90;;;;;;5120246;27;20019;-44
2021/06/22 00:06:53;;;;;;;3.72;1.58;;;15.50;99.90;;;;;;5118287;27;20176;-45
2021/06/22 00:09:19;;;;;;;1.65;1.40;;;15.50;99.90;;;;;;5123793;27;20035;-43
2021/06/22 00:11:44;;;;;;;1.85;1.30;;;15.60;99.90;;;;;;5117215;27;20591;-46
2021/06/22 00:14:11;;;;;;;2.70;1.20;;;15.60;99.90;;;;;;5119801;27;20397;-44
2021/06/22 00:16:36;;;;;;;1.48;1.15;;;15.60;99.90;;;;;;5121398;27;20035;-44
2021/06/22 00:19:02;;;;;;;1.05;1.00;;;15.60;99.90;;;;;;5100037;27;20031;-44
2021/06/22 00:21:28;;;;;;;2.20;1.00;;;15.70;99.90;;;;;;5092999;27;20028;-45
2021/06/22 00:23:54;;;;;;;1.58;1.20;;;15.60;99.90;;;;;;5092306;27;20390;-43
2021/06/22 00:26:19;;;;;;;3.90;1.20;;;15.60;99.90;;;;;;5113690;27;20039;-45
2021/06/22 00:28:45;;;;;;;3.92;1.10;;;15.50;99.90;;;;;;5118606;27;20020;-44
2021/06/22 00:31:12;;;;;;;1.55;0.90;;;15.50;99.90;;;;;;5111452;27;20024;-44
2021/06/22 00:33:38;;;;;;;2.28;1.23;;;15.50;99.90;;;;;;5112393;27;20007;-45
2021/06/22 00:36:04;;;;;;;2.47;1.20;;;15.60;99.90;;;;;;5113670;27;20444;-44
2021/06/22 00:38:29;;;;;;;2.03;1.10;;;15.60;99.90;;;;;;5113283;27;20092;-44
2021/06/22 00:40:55;;;;;;;1.02;1.00;;;15.50;99.90;;;;;;5112513;27;20023;-44
2021/06/22 00:43:20;;;;;;;3.63;2.03;;;15.50;99.90;;;;;;5113811;27;20034;-46
2021/06/22 00:45:46;;;;;;;2.33;2.10;;;15.60;99.90;;;;;;5118436;27;20277;-44
2021/06/22 00:48:12;;;;;;;5.50;2.60;;;15.60;99.90;;;;;;5112238;27;20034;-44
2021/06/22 00:50:37;;;;;;;4.15;2.65;;;15.50;99.90;;;;;;5099974;27;20023;-44
2021/06/22 00:53:03;;;;;;;6.53;2.88;;;15.50;99.90;;;;;;5113596;27;20048;-45
2021/06/22 00:55:29;;;;;;;2.45;2.25;;;15.40;99.90;;;;;;5112696;27;20068;-43
2021/06/22 00:58:07;;;;;;;4.85;2.50;;;15.50;99.90;;;;;;5112913;27;20066;-43
2021/06/22 01:00:35;;;;;;;4.10;2.42;;;15.40;99.90;;;;;;5100976;27;20502;-44
2021/06/22 01:03:01;;;;;;;3.70;2.50;;;15.50;99.90;;;;;;5113757;27;20122;-46
2021/06/22 01:05:27;;;;;;;3.50;2.20;;;15.50;99.90;;;;;;5114244;27;20377;-44
2021/06/22 01:07:55;;;;;;;2.50;2.20;;;15.50;99.90;;;;;;5107678;27;20015;-44
2021/06/22 01:10:21;;;;;;;2.97;2.67;;;15.40;99.90;;;;;;5114115;27;20020;-43
2021/06/22 01:12:48;;;;;;;3.40;2.08;;;15.40;99.90;;;;;;5120654;27;20023;-44
2021/06/22 01:15:25;;;;;;;4.70;2.22;;;15.50;99.90;;;;;;5118269;27;20511;-44
2021/06/22 01:17:55;;;;;;;4.75;2.85;;;15.40;99.90;;;;;;5122511;28;20428;-44
2021/06/22 01:20:22;;;;;;;3.63;2.50;;;15.40;99.90;;;;;;5116752;28;20026;-44
2021/06/22 01:22:48;;;;;;;3.17;2.85;;;15.30;99.90;;;;;;5122572;28;20023;-44
2021/06/22 01:25:14;;;;;;;2.42;2.22;;;15.30;99.90;;;;;;5117750;28;20376;-45
2021/06/22 01:27:41;;;;;;;3.97;3.08;;;15.30;99.90;;;;;;5122380;28;20064;-43
2021/06/22 01:30:09;;;;;;;3.40;2.25;;;15.30;99.90;;;;;;5116818;28;20019;-44
2021/06/22 01:32:35;;;;;;;2.97;2.20;;;15.20;99.90;;;;;;5116758;28;20035;-44
2021/06/22 01:35:01;;;;;;;2.92;2.28;;;15.20;99.90;;;;;;5122810;28;20196;-46
2021/06/22 01:37:26;;;;;;;2.65;2.38;;;15.20;99.90;;;;;;5117175;28;20276;-43
2021/06/22 01:39:52;;;;;;;2.80;2.03;;;15.20;99.90;;;;;;5122726;28;20034;-45
2021/06/22 01:42:19;;;;;;;2.20;2.00;;;15.20;99.90;;;;;;5116786;28;20031;-43
2021/06/22 01:44:47;;;;;;;4.78;2.03;;;15.10;99.90;;;;;;5123032;28;20020;-44
2021/06/22 01:47:16;;;;;;;2.47;1.85;;;15.20;99.90;;;;;;5118155;28;20027;-44
2021/06/22 01:49:41;;;;;;;2.00;1.90;;;15.20;99.90;;;;;;5105402;28;20026;-44
2021/06/22 01:52:07;;;;;;;2.70;1.95;;;15.20;99.90;;;;;;5122857;27;20019;-43
2021/06/22 01:54:33;;;;;;;2.20;1.95;;;15.20;99.90;;;;;;5118899;28;20020;-44
2021/06/22 01:56:59;;;;;;;5.72;2.22;;;15.20;99.90;;;;;;5124421;28;20050;-43
2021/06/22 01:59:25;;;;;;;4.40;2.13;;;15.20;99.90;;;;;;5120409;28;20031;-43
2021/06/22 02:01:50;;;;;;;2.72;2.28;;;15.20;99.90;;;;;;5123923;28;20019;-43
2021/06/22 02:04:17;;;;;;;2.60;2.10;;;15.20;99.90;;;;;;5117186;28;20061;-43
2021/06/22 02:06:43;;;;;;;4.07;2.20;;;15.10;99.90;;;;;;5117706;27;20055;-44
2021/06/22 02:09:08;;;;;;;3.60;2.53;;;15.20;99.90;;;;;;5124988;27;20074;-44
2021/06/22 02:11:34;;;;;;;2.60;2.00;;;15.10;99.90;;;;;;5122470;27;20492;-44
2021/06/22 02:14:00;;;;;;;3.58;2.38;;;15.10;99.90;;;;;;5123420;27;20058;-44
2021/06/22 02:16:26;;;;;;;5.03;2.45;;;15.10;99.90;;;;;;5122425;27;20434;-43
2021/06/22 02:18:51;;;;;;;5.15;2.58;;;15.10;99.90;;;;;;5121802;27;20016;-43
2021/06/22 02:21:17;;;;;;;4.68;2.65;;;15.10;99.90;;;;;;5122271;27;20030;-44
2021/06/22 02:23:42;;;;;;;5.75;2.90;;;15.10;99.90;;;;;;5122209;27;20020;-44
2021/06/22 02:26:08;;;;;;;6.43;3.60;;;15.10;99.90;;;;;;5120122;27;20019;-43
2021/06/22 02:28:34;;;;;;;3.72;3.35;;;15.10;99.90;;;;;;5126062;27;20389;-44
2021/06/22 02:31:00;;;;;;;5.07;4.03;;;15.00;99.90;;;;;;5100318;27;20162;-44
2021/06/22 02:33:26;;;;;;;4.40;3.85;;;15.10;99.90;;;;;;5092742;27;20534;-44
2021/06/22 02:35:52;;;;;;;4.68;4.20;;;15.00;99.90;;;;;;5093247;27;20024;-44
2021/06/22 02:38:18;;;;;;;6.53;4.90;;;15.00;99.90;;;;;;5093955;27;20636;-44
2021/06/22 02:40:46;;;;;;;9.82;5.22;;;14.90;99.90;;;;;;5097524;27;20358;-44
2021/06/22 02:43:13;;;;;;;9.70;5.82;;;14.90;99.90;;;;;;5095040;27;20055;-44
2021/06/22 02:45:40;;;;;;;7.07;5.32;;;14.90;99.90;;;;;;5093466;27;20020;-45
2021/06/22 02:48:08;;;;;;;6.25;5.30;;;14.90;99.90;;;;;;5094753;27;20016;-47
2021/06/22 02:50:34;;;;;;;8.00;4.72;;;14.80;99.90;;;;;;5092843;27;20034;-47
2021/06/22 02:52:59;;;;;;;7.97;5.25;;;14.70;99.90;;;;;;5092985;27;20717;-47
2021/06/22 02:55:25;;;;;;;7.22;5.13;;;14.70;99.90;;;;;;5097344;27;20325;-46
2021/06/22 02:57:53;;;;;;;12.40;6.13;;;14.60;99.90;;;;;;5096113;27;20028;-45
2021/06/22 03:00:22;;;;;;;8.23;5.40;;;14.50;99.90;;;;;;5097287;27;20043;-46
2021/06/22 03:02:47;;;;;;;10.07;5.70;;;14.50;99.90;;;;;;5097278;27;20369;-44
2021/06/22 03:05:13;;;;;;;8.05;5.80;;;14.50;99.90;;;;;;5095574;27;20032;-43
2021/06/22 03:07:39;;;;;;;14.07;6.75;;;14.40;99.90;;;;;;5091586;27;20020;-44
2021/06/22 03:10:07;;;;;;;7.38;5.28;;;14.50;99.90;;;;;;5092892;27;20119;-44
2021/06/22 03:12:32;;;;;;;16.33;7.22;;;14.40;99.90;;;;;;5092342;27;20573;-43
2021/06/22 03:14:58;;;;;;;8.60;5.68;;;14.40;99.90;;;;;;5092456;27;20103;-44
2021/06/22 03:17:23;;;;;;;8.77;6.22;;;14.50;99.90;;;;;;5108318;27;20100;-44
2021/06/22 03:19:49;;;;;;;10.10;5.88;;;14.50;99.90;;;;;;5099133;27;20039;-44
2021/06/22 03:22:14;;;;;;;8.85;5.25;;;14.50;99.90;;;;;;5110963;27;20031;-43
2021/06/22 03:24:40;;;;;;;8.32;6.07;;;14.50;99.90;;;;;;5107741;27;20043;-46
2021/06/22 03:27:06;;;;;;;12.57;6.60;;;14.50;99.90;;;;;;5111653;27;20058;-44
2021/06/22 03:29:31;;;;;;;14.07;6.78;;;14.50;99.90;;;;;;5114404;27;20408;-44
2021/06/22 03:31:57;;;;;;;11.85;6.90;;;14.50;99.90;;;;;;5096685;27;20020;-44
2021/06/22 03:34:23;;;;;;;15.52;6.72;;;14.50;99.90;;;;;;5109616;27;20050;-44
2021/06/22 03:36:48;;;;;;;13.43;6.88;;;14.50;99.90;;;;;;5099892;27;20023;-43
2021/06/22 03:39:14;;;;;;;13.60;7.88;;;14.50;99.90;;;;;;5106660;27;20020;-44
2021/06/22 03:41:40;;;;;;;13.93;8.00;;;14.50;99.90;;;;;;5099443;27;20024;-43
2021/06/22 03:44:05;;;;;;;11.38;7.72;;;14.50;99.90;;;;;;5095834;27;20020;-43
2021/06/22 03:46:31;;;;;;;11.35;7.05;;;14.40;99.90;;;;;;5097784;27;20240;-45
2021/06/22 03:48:57;;;;;;;17.48;8.75;;;14.40;99.90;;;;;;5095352;27;20032;-43
2021/06/22 03:51:22;;;;;;;13.15;8.05;;;14.50;99.90;;;;;;5103574;27;20043;-43
2021/06/22 03:53:48;;;;;;;12.50;8.63;;;14.50;99.90;;;;;;5090804;27;20027;-43
2021/06/22 03:56:14;;;;;;;15.35;8.55;;;14.50;99.90;;;;;;5108417;27;20050;-44
2021/06/22 03:58:40;;;;;;;15.38;8.05;;;14.40;99.90;;;;;;5106107;27;20024;-43
2021/06/22 04:01:05;;;;;;;17.40;8.95;;;14.40;99.90;;;;;;5099607;27;20459;-43
2021/06/22 04:03:31;;;;;;;15.27;9.05;;;14.30;99.90;;;;;;5101516;27;20031;-43
2021/06/22 04:05:56;;;;;;;16.63;8.65;;;14.30;99.90;;;;;;5113139;27;20130;-43
2021/06/22 04:08:22;;;;;;;18.00;8.73;;;14.20;99.90;;;;;;5104707;27;20018;-43
2021/06/22 04:10:48;;;;;;;12.00;8.30;;;14.20;99.90;;;;;;5111819;27;20031;-43
2021/06/22 04:13:13;;;;;;;15.50;9.23;;;14.20;99.90;;;;;;5120875;27;20019;-43
2021/06/22 04:15:39;;;;;;;13.77;8.98;;;14.20;99.90;;;;;;5119589;27;20076;-44
2021/06/22 04:18:06;;;;;;;13.32;8.88;;;14.20;99.90;;;;;;5125933;27;20472;-44
2021/06/22 04:20:32;;;;;;;21.77;10.50;;;14.20;99.90;;;;;;5106027;27;20023;-44
2021/06/22 04:22:58;;;;;;;13.75;9.43;;;14.10;99.90;;;;;;5126797;27;20019;-43
2021/06/22 04:25:24;;;;;;;19.05;10.30;;;14.10;99.90;;;;;;5123682;27;20016;-44
2021/06/22 04:27:50;;;;;;;19.40;10.63;;;14.20;99.90;;;;;;5126319;27;20037;-44
2021/06/22 04:30:16;;;;;;;16.10;9.20;;;14.20;99.90;;;;;;5118666;27;20080;-44
2021/06/22 04:32:42;;;;;;;22.77;10.75;;;14.30;99.90;;;;;;5099501;28;20582;-45
2021/06/22 04:35:08;;;;;;;17.77;10.48;;;14.30;99.90;;;;;;5106308;27;20031;-43
2021/06/22 04:37:34;;;;;;;20.63;11.00;;;14.20;99.90;;;;;;5107261;27;20034;-43
2021/06/22 04:39:59;;;;;;;13.50;9.73;;;14.20;99.90;;;;;;5110426;27;20027;-43
2021/06/22 04:42:25;;;;;;;14.93;9.93;;;14.30;99.90;;;;;;5109824;27;20019;-44
2021/06/22 04:44:50;;;;;;;18.15;10.10;;;14.40;99.90;;;;;;5108560;27;20411;-44
2021/06/22 04:47:16;;;;;;;17.00;11.32;;;14.40;99.90;;;;;;5110493;27;20023;-44
2021/06/22 04:49:41;;;;;;;16.25;10.18;;;14.50;99.90;;;;;;5096547;27;20130;-44
2021/06/22 04:52:09;;;;;;;13.70;8.93;;;14.50;99.90;;;;;;5111369;27;20027;-45
2021/06/22 04:54:35;;;;;;;13.82;9.13;;;14.60;99.90;;;;;;5104661;27;20016;-44
2021/06/22 04:57:01;;;;;;;17.70;10.88;;;14.70;99.90;;;;;;5111133;27;20030;-43
2021/06/22 04:59:26;;;;;;;19.02;10.40;;;14.70;99.90;;;;;;5103895;27;20023;-45
2021/06/22 05:01:52;;;;;;;15.60;10.25;;;14.80;99.90;;;;;;5111505;27;20027;-43
2021/06/22 05:04:19;;;;;;;26.73;10.85;;;14.90;99.90;;;;;;5109971;27;20023;-46
2021/06/22 05:06:44;;;;;;;11.48;9.43;;;14.90;99.90;;;;;;5097677;27;20103;-44
2021/06/22 05:09:10;;;;;;;18.63;10.35;;;15.00;99.90;;;;;;5111873;27;20539;-44
2021/06/22 05:11:35;;;;;;;18.20;10.00;;;15.00;99.90;;;;;;5113903;27;20530;-43
2021/06/22 05:14:01;;;;;;;19.65;10.48;;;14.90;99.90;;;;;;5117670;27;20086;-44
2021/06/22 05:16:28;;;;;;;15.90;9.95;;;14.80;99.90;;;;;;5119487;27;20102;-44
2021/06/22 05:18:53;;;;;;;15.48;8.90;;;14.70;99.90;;;;;;5121308;28;20110;-43
2021/06/22 05:21:19;;;;;;;13.57;8.25;;;14.90;99.90;;;;;;5118958;28;20102;-44
2021/06/22 05:23:44;;;;;;;16.70;8.93;;;14.90;99.90;;;;;;5124837;28;20027;-43
2021/06/22 05:26:10;;;;;;;14.77;8.15;;;15.00;99.90;;;;;;5098949;28;20047;-44
2021/06/22 05:28:35;;;;;;;23.10;8.25;;;15.10;99.90;;;;;;5099372;28;20017;-45
2021/06/22 05:31:00;;;;;;;14.25;7.38;;;15.20;99.90;;;;;;5097506;28;20626;-44
2021/06/22 05:33:26;;;;;;;17.75;8.32;;;15.40;99.90;;;;;;5113745;28;20020;-44
2021/06/22 05:35:52;;;;;;;13.40;7.72;;;15.40;99.90;;;;;;5108871;28;20449;-44
2021/06/22 05:38:17;;;;;;;17.60;8.02;;;15.50;99.90;;;;;;5102296;28;20023;-44
2021/06/22 05:40:43;;;;;;;14.85;7.57;;;15.40;99.90;;;;;;5114677;27;20372;-44
2021/06/22 05:43:08;;;;;;;15.63;7.25;;;15.50;99.90;;;;;;5105799;27;20035;-45
2021/06/22 05:45:34;;;;;;;11.13;6.35;;;15.40;99.90;;;;;;5101879;27;20064;-44
2021/06/22 05:48:00;;;;;;;12.57;6.25;;;15.40;99.90;;;;;;5105247;27;20024;-46
2021/06/22 05:50:25;;;;;;;14.82;6.07;;;15.40;99.90;;;;;;5099085;27;20019;-44
2021/06/22 05:52:53;;;;;;;11.27;6.05;;;15.40;99.90;;;;;;5093277;27;20493;-43
2021/06/22 05:55:21;;;;;;;10.77;5.32;;;15.60;99.90;;;;;;5095732;27;20027;-43
2021/06/22 05:57:48;;;;;;;13.02;6.45;;;15.60;99.90;;;;;;5107824;27;20051;-45
2021/06/22 06:00:16;;;;;;;10.02;5.38;;;15.60;99.90;;;;;;5100562;27;20061;-43
2021/06/22 06:02:41;;;;;;;14.00;5.45;;;15.50;99.90;;;;;;5105389;27;20034;-43
2021/06/22 06:05:09;;;;;;;6.93;4.97;;;15.60;99.90;;;;;;5097107;27;20482;-43
2021/06/22 06:07:34;;;;;;;14.30;5.60;;;15.70;99.90;;;;;;5098185;27;20074;-44
2021/06/22 06:10:00;;;;;;;10.95;5.85;;;15.80;99.90;;;;;;5099312;27;20023;-43
2021/06/22 06:12:25;;;;;;;15.27;6.57;;;15.80;99.90;;;;;;5103347;27;20142;-43
2021/06/22 06:14:51;;;;;;;11.15;5.10;;;15.80;99.90;;;;;;5094535;27;20032;-43
2021/06/22 06:17:16;;;;;;;11.30;5.53;;;15.80;99.90;;;;;;5104507;27;20415;-44
2021/06/22 06:19:42;;;;;;;11.55;5.50;;;15.80;99.90;;;;;;5096433;27;20429;-43
2021/06/22 06:22:09;;;;;;;14.60;6.05;;;16.00;99.90;;;;;;5097848;27;20489;-43
2021/06/22 06:24:35;;;;;;;10.43;5.35;;;16.00;99.90;;;;;;5104205;27;20041;-46
2021/06/22 06:32:12;;;;;;;7.57;4.45;;;16.40;99.90;;;;;;5098302;27;20715;-44
2021/06/22 06:34:38;;;;;;;11.10;5.78;;;16.40;99.90;;;;;;5098108;27;20051;-43
2021/06/22 06:37:03;;;;;;;23.45;6.60;;;16.60;99.90;;;;;;5101053;27;20016;-43
2021/06/22 06:39:29;;;;;;;11.25;4.35;;;16.70;99.90;;;;;;5106006;27;20027;-44
2021/06/22 06:41:54;;;;;;;12.35;4.95;;;16.90;99.90;;;;;;5097616;27;20163;-44
2021/06/22 06:44:20;;;;;;;9.23;4.40;;;17.00;99.90;;;;;;5101708;27;20027;-44
2021/06/22 06:46:45;;;;;;;12.98;4.50;;;16.90;99.90;;;;;;5096266;27;20038;-43
2021/06/22 06:49:11;;;;;;;9.68;4.55;;;17.00;99.90;;;;;;5098993;27;20528;-43
2021/06/22 06:51:36;;;;;;;7.45;4.07;;;17.00;99.90;;;;;;5096227;27;20247;-44
2021/06/22 06:54:02;;;;;;;12.90;4.38;;;17.20;99.90;;;;;;5099099;27;20481;-46
2021/06/22 06:56:28;;;;;;;13.38;4.95;;;17.40;99.90;;;;;;5102272;27;20046;-45
2021/06/22 06:58:53;;;;;;;12.02;4.40;;;17.60;99.90;;;;;;5108714;27;20035;-44
2021/06/22 07:01:19;;;;;;;10.88;4.65;;;17.80;99.90;;;;;;5103383;27;20038;-44
2021/06/22 07:03:44;;;;;;;16.85;4.63;;;17.90;99.90;;;;;;5104752;27;20054;-44
2021/06/22 07:06:14;;;;;;;11.40;4.45;;;17.90;99.90;;;;;;5108545;27;20035;-43
2021/06/22 07:08:40;;;;;;;10.15;4.53;;;18.00;99.90;;;;;;5112819;27;20253;-43
2021/06/22 07:11:06;;;;;;;11.32;4.00;;;18.00;99.90;;;;;;5115104;27;20083;-43
2021/06/22 07:13:32;;;;;;;9.77;4.40;;;18.10;99.90;;;;;;5118109;27;20032;-43
2021/06/22 07:15:57;;;;;;;6.70;3.47;;;18.20;99.90;;;;;;5114014;27;20023;-43
2021/06/22 07:18:23;;;;;;;10.77;3.70;;;18.20;99.90;;;;;;5124102;27;20062;-43
2021/06/22 07:20:48;;;;;;;7.93;3.60;;;18.20;99.90;;;;;;5109763;27;20035;-43
2021/06/22 07:23:15;;;;;;;9.02;4.05;;;18.40;99.90;;;;;;5126965;27;20031;-44
2021/06/22 07:25:40;;;;;;;11.60;4.22;;;18.40;99.90;;;;;;5117801;27;20046;-44
2021/06/22 07:28:06;;;;;;;16.00;4.80;;;18.60;99.90;;;;;;5125607;27;20027;-45
2021/06/22 07:30:32;;;;;;;12.20;4.72;;;18.80;99.90;;;;;;5119635;27;20016;-43
2021/06/22 07:32:58;;;;;;;11.38;4.57;;;18.80;99.90;;;;;;5116353;27;20529;-43
2021/06/22 07:35:24;;;;;;;6.97;4.10;;;18.70;99.90;;;;;;5123363;27;20385;-44
2021/06/22 07:37:50;;;;;;;8.23;3.90;;;18.60;99.90;;;;;;5109133;27;20151;-43
2021/06/22 07:40:16;;;;;;;12.02;4.13;;;18.90;99.90;;;;;;5118913;27;20138;-44
2021/06/22 07:42:42;;;;;;;6.95;2.90;;;19.10;99.90;;;;;;5119516;27;20023;-43
2021/06/22 07:45:08;;;;;;;9.15;4.32;;;19.10;99.90;;;;;;5118358;27;20389;-44
2021/06/22 07:47:33;;;;;;;6.75;3.80;;;19.00;99.90;;;;;;5120405;27;20465;-43
2021/06/22 07:49:59;;;;;;;9.02;3.78;;;19.10;99.90;;;;;;5113132;27;20050;-43
2021/06/22 07:52:25;;;;;;;16.33;4.88;;;19.00;99.90;;;;;;5119887;27;20018;-44
2021/06/22 07:54:50;;;;;;;9.32;3.92;;;19.30;99.90;;;;;;5117614;27;20284;-44
2021/06/22 07:57:16;;;;;;;9.07;3.67;;;19.70;99.90;;;;;;5124352;27;20042;-44
2021/06/22 07:59:42;;;;;;;7.93;3.85;;;19.90;99.90;;;;;;5112143;27;20047;-43
2021/06/22 08:02:08;;;;;;;11.15;4.28;;;19.90;99.90;;;;;;5123041;27;20101;-44
2021/06/22 08:04:34;;;;;;;9.60;4.00;;;19.70;99.90;;;;;;5113227;27;20094;-44
2021/06/22 08:06:59;;;;;;;6.93;3.72;;;19.70;99.90;;;;;;5116925;27;20094;-44
2021/06/22 08:09:25;;;;;;;8.40;3.22;;;20.00;99.90;;;;;;5121035;27;20384;-43
2021/06/22 08:11:51;;;;;;;9.75;3.28;;;20.40;99.90;;;;;;5116402;27;20400;-44
2021/06/22 08:14:17;;;;;;;7.10;3.58;;;20.40;99.50;;;;;;5115642;27;20023;-45
2021/06/22 08:16:42;;;;;;;9.13;3.28;;;20.80;99.20;;;;;;5119938;27;20594;-44
2021/06/22 08:19:08;;;;;;;11.48;3.88;;;21.10;98.30;;;;;;5116308;27;20134;-44
2021/06/22 08:21:34;;;;;;;8.00;2.88;;;21.60;96.60;;;;;;5118582;27;20029;-44
2021/06/22 08:24:00;;;;;;;8.45;3.80;;;21.20;94.90;;;;;;5110281;27;20256;-45
2021/06/22 08:26:25;;;;;;;7.22;2.65;;;21.40;94.60;;;;;;5102063;27;20031;-46
2021/06/22 08:28:51;;;;;;;4.05;2.78;;;22.10;96.40;;;;;;5114436;27;20051;-45
2021/06/22 08:31:18;;;;;;;6.32;2.28;;;23.40;93.60;;;;;;5106299;27;20034;-45
2021/06/22 08:33:44;;;;;;;7.60;2.55;;;24.70;91.00;;;;;;5090955;27;20493;-45
2021/06/22 08:36:10;;;;;;;5.15;2.33;;;26.00;79.50;;;;;;5093357;27;20038;-45
2021/06/22 08:38:36;;;;;;;5.10;2.80;;;26.40;75.40;;;;;;5094141;27;20048;-45
2021/06/22 08:41:04;;;;;;;5.07;2.75;;;25.80;71.10;;;;;;5094093;27;20595;-44
2021/06/22 08:43:30;;;;;;;5.78;2.80;;;24.60;74.90;;;;;;5091137;28;20039;-45
2021/06/22 08:45:56;;;;;;;8.18;3.17;;;23.60;78.10;;;;;;5091223;27;20032;-45
2021/06/22 08:48:22;;;;;;;10.95;3.50;;;23.00;78.30;;;;;;5089376;27;20024;-45
2021/06/22 08:50:48;;;;;;;7.40;3.35;;;22.40;80.50;;;;;;5091310;28;20070;-44
2021/06/22 08:53:14;;;;;;;5.47;3.38;;;22.10;84.00;;;;;;5091219;28;20477;-44
2021/06/22 08:55:41;;;;;;;4.90;3.03;;;22.10;85.00;;;;;;5090582;27;20435;-45
2021/06/22 08:58:09;;;;;;;6.18;2.50;;;22.40;85.90;;;;;;5092160;27;20028;-44
2021/06/22 09:00:39;;;;;;;5.55;3.00;;;22.70;83.40;;;;;;5091926;27;20056;-44
2021/06/22 09:03:09;;;;;;;;;;;22.50;81.50;;;;;;5091089;27;20046;-44
2021/06/22 09:05:35;;;;;;;6.22;2.83;;;22.20;80.90;;;;;;5090244;28;20631;-44
2021/06/22 09:08:01;;;;;;;6.13;2.67;;;23.20;81.40;;;;;;5089057;27;20095;-45
2021/06/22 09:10:30;;;;;;;5.47;2.53;;;24.50;75.50;;;;;;5095986;27;20082;-45
2021/06/22 09:12:58;;;;;;;6.15;2.75;;;25.50;72.20;;;;;;5093743;28;20047;-46
2021/06/22 09:15:32;;;;;;;5.50;2.83;;;26.00;69.00;;;;;;5093570;28;20111;-45
2021/06/22 09:17:58;;;;;;;10.90;3.25;;;25.80;70.80;;;;;;5093520;28;20027;-45
2021/06/22 09:20:33;;;;;;;4.90;2.67;;;25.50;71.50;;;;;;5111928;28;20432;-44
2021/06/22 09:23:19;;;;;;;5.65;2.78;;;25.30;70.60;;;;;;5107793;28;20028;-45
2021/06/22 09:25:46;;;;;;;5.47;2.80;;;24.70;69.20;;;;;;5094124;27;20028;-45
2021/06/22 09:28:14;;;;;;;6.03;3.00;;;23.90;71.60;;;;;;5114804;28;20016;-45
2021/06/22 09:30:43;;;;;;;8.55;3.67;;;23.40;74.30;;;;;;5098892;28;20020;-44
2021/06/22 09:33:19;;;;;;;8.90;4.30;;;22.80;76.30;;;;;;5107200;28;20485;-45
2021/06/22 09:35:47;;;;;;;11.50;4.78;;;22.10;80.20;;;;;;5099823;28;20493;-45
2021/06/22 09:38:14;;;;;;;8.35;4.55;;;21.70;82.10;;;;;;5109243;28;20389;-44
2021/06/22 09:40:40;;;;;;;10.27;4.40;;;20.90;83.50;;;;;;5109088;27;20019;-44
2021/06/22 09:43:05;;;;;;;8.32;3.85;;;20.70;86.80;;;;;;5103207;28;20396;-45
2021/06/22 09:45:32;;;;;;;8.05;4.22;;;20.50;87.60;;;;;;5095645;28;20034;-44
2021/06/22 09:48:02;;;;;;;6.60;4.07;;;20.40;86.60;;;;;;5114044;28;20022;-44
2021/06/22 09:50:38;;;;;;;24.10;6.13;;;19.90;88.80;;;;;;5101950;28;20120;-45
2021/06/22 09:53:23;;;;;;;8.65;4.57;;;19.70;90.60;;;;;;5108412;28;20107;-44
2021/06/22 09:55:49;;;;;;;10.07;4.30;;;19.80;91.20;;;;;;5102675;28;20012;-45
2021/06/22 09:58:15;;;;;;;6.80;4.07;;;19.80;91.00;;;;;;5109403;28;20647;-44
2021/06/22 10:00:40;;;;;;;9.98;4.35;;;19.90;91.40;;;;;;5109824;28;20035;-44
2021/06/22 10:03:06;;;;;;;11.15;4.53;;;19.90;91.30;;;;;;5111292;28;20028;-46
2021/06/22 10:05:49;;;;;;;7.47;3.97;;;19.90;91.70;;;;;;5111713;28;20019;-44
2021/06/22 10:08:15;;;;;;;8.98;3.70;;;20.00;91.70;;;;;;5097819;28;20039;-46
2021/06/22 10:10:41;;;;;;;6.13;3.08;;;20.10;91.40;;;;;;5110227;28;20031;-46
2021/06/22 10:13:07;;;;;;;7.07;3.70;;;20.10;90.00;;;;;;5124971;28;20364;-45
2021/06/22 10:15:33;;;;;;;7.75;3.60;;;20.10;91.60;;;;;;5112042;28;20077;-45
2021/06/22 10:17:59;;;;;;;6.95;3.83;;;20.10;91.40;;;;;;5123376;28;20023;-45
2021/06/22 10:20:24;;;;;;;8.30;4.18;;;20.00;91.40;;;;;;5114501;28;20036;-45
2021/06/22 10:22:50;;;;;;;6.82;3.90;;;20.00;90.80;;;;;;5121837;28;20015;-44
2021/06/22 10:25:17;;;;;;;11.82;4.13;;;19.90;91.60;;;;;;5115280;28;20150;-45
2021/06/22 10:27:43;;;;;;;8.15;3.70;;;20.00;91.60;;;;;;5123565;27;20019;-45
2021/06/22 10:30:10;;;;;;;9.98;3.78;;;19.90;92.00;;;;;;5121080;27;20117;-45
2021/06/22 10:32:37;;;;;;;14.38;4.30;;;19.90;92.50;;;;;;5120742;27;20016;-45
2021/06/22 10:35:16;;;;;;;4.97;3.45;;;19.70;92.10;;;;;;5121139;27;20076;-45
2021/06/22 10:37:56;;;;;;;8.40;3.28;;;19.60;92.40;;;;;;5120880;27;20028;-47
2021/06/22 10:40:25;;;;;;;10.20;4.22;;;19.50;93.50;;;;;;5102615;27;20024;-45
2021/06/22 10:42:53;;;;;;;7.05;4.03;;;19.40;93.00;;;;;;5120137;27;20028;-44
2021/06/22 10:45:20;;;;;;;9.13;4.00;;;19.40;92.90;;;;;;5129609;27;20023;-44
2021/06/22 10:47:47;;;;;;;8.20;3.65;;;19.40;93.00;;;;;;5120036;27;20488;-44
2021/06/22 10:50:21;;;;;;;11.18;3.38;;;19.40;92.70;;;;;;5116097;27;20027;-46
2021/06/22 10:52:50;;;;;;;13.23;4.25;;;19.30;93.30;;;;;;5107090;27;20024;-45
2021/06/22 10:55:20;;;;;;;10.25;3.63;;;19.30;93.40;;;;;;5124223;27;20030;-44
2021/06/22 10:58:11;;;;;;;11.60;3.78;;;19.40;94.10;;;;;;5128815;27;20058;-47
2021/06/22 11:00:49;;;;;;;7.80;3.00;;;19.50;92.90;;;;;;5115273;27;20049;-45
2021/06/22 11:03:28;;;;;;;9.02;3.38;;;19.70;93.40;;;;;;5116533;27;20042;-44
2021/06/22 11:06:12;;;;;;;6.95;3.17;;;19.90;92.00;;;;;;5092126;27;20099;-45
2021/06/22 11:08:40;;;;;;;7.07;3.10;;;20.00;92.20;;;;;;5104365;27;20450;-44
2021/06/22 11:11:06;;;;;;;5.25;2.92;;;20.20;92.30;;;;;;5092997;27;20081;-46
2021/06/22 11:13:32;;;;;;;7.60;3.20;;;20.10;92.50;;;;;;5092509;27;20712;-44
2021/06/22 11:16:01;;;;;;;8.52;3.35;;;20.20;91.90;;;;;;5093491;27;20095;-46
2021/06/22 11:18:27;;;;;;;10.05;3.92;;;20.40;91.90;;;;;;5092202;27;20486;-45
2021/06/22 11:20:58;;;;;;;6.43;3.20;;;20.70;92.10;;;;;;5091987;27;20133;-45
2021/06/22 11:23:23;;;;;;;6.60;2.53;;;20.80;90.30;;;;;;5093347;27;20103;-45
2021/06/22 11:25:54;;;;;;;6.78;3.00;;;21.00;91.30;;;;;;5095017;27;20306;-45
2021/06/22 11:28:22;;;;;;;9.68;2.45;;;21.20;90.80;;;;;;5093678;27;20016;-44
2021/06/22 11:30:59;;;;;;;11.50;3.22;;;21.40;91.10;;;;;;5093059;27;20024;-44
2021/06/22 11:33:41;;;;;;;5.55;2.65;;;21.70;90.20;;;;;;5094891;27;20024;-44
2021/06/22 11:36:21;;;;;;;8.82;3.50;;;21.80;89.40;;;;;;5096586;27;20625;-45
2021/06/22 11:39:18;;;;;;;8.80;3.20;;;21.70;86.10;;;;;;5094912;27;20478;-44
2021/06/22 11:42:08;;;;;;;5.82;2.20;;;21.80;87.30;;;;;;5093942;27;20436;-45
2021/06/22 11:44:38;;;;;;;5.25;2.33;;;22.30;87.40;;;;;;5101540;27;20023;-48
2021/06/22 11:47:24;;;;;;;2.73;2.03;;;21.90;81.30;;;;;;5113869;27;20028;-47
2021/06/22 11:49:49;;;;;;;6.70;2.85;;;22.00;84.30;;;;;;5088681;27;20042;-44
2021/06/22 11:52:18;;;;;;;7.32;2.38;;;22.50;86.90;;;;;;5110031;27;20016;-44
2021/06/22 11:54:50;;;;;;;4.43;2.25;;;22.80;83.80;;;;;;5104659;27;20015;-45
2021/06/22 12:00:28;;;;;;;7.10;2.53;;;23.40;83.10;;;;;;5089937;28;20043;-45
2021/06/22 12:02:56;;;;;;;5.15;2.55;;;23.30;80.80;;;;;;5093975;28;20017;-47
2021/06/22 12:05:24;;;;;;;6.18;2.83;;;22.90;81.60;;;;;;5093146;27;20028;-46
2021/06/22 12:07:53;;;;;;;3.67;2.40;;;22.60;84.80;;;;;;5091448;27;20012;-44
2021/06/22 12:10:22;;;;;;;5.90;2.67;;;22.30;84.30;;;;;;5092914;27;20218;-47
2021/06/22 12:12:49;;;;;;;5.65;3.10;;;22.00;84.50;;;;;;5091338;27;20418;-46
2021/06/22 12:15:29;;;;;;;7.10;2.60;;;21.80;85.90;;;;;;5093176;27;20128;-43
2021/06/22 12:17:54;;;;;;;8.27;2.85;;;21.60;86.50;;;;;;5091170;27;20016;-45
2021/06/22 12:20:26;;;;;;;8.00;2.72;;;21.30;86.70;;;;;;5095224;27;20034;-45
2021/06/22 12:23:03;;;;;;;7.45;2.50;;;21.30;87.00;;;;;;5093574;27;20016;-46
2021/06/22 12:25:33;;;;;;;7.65;3.10;;;21.20;87.40;;;;;;5092257;28;20031;-44
2021/06/22 12:27:58;;;;;;;10.93;2.93;;;21.30;89.20;;;;;;5091960;27;20034;-46
2021/06/22 12:30:32;;;;;;;7.47;2.80;;;21.40;88.40;;;;;;5090912;27;20089;-46
2021/06/22 12:33:05;;;;;;;6.38;2.90;;;21.30;85.10;;;;;;5098024;27;20669;-44
2021/06/22 12:35:30;;;;;;;4.55;2.50;;;21.40;89.70;;;;;;5108927;27;20106;-44
2021/06/22 12:38:09;;;;;;;5.18;2.60;;;21.50;87.70;;;;;;5100146;27;20639;-43
2021/06/22 12:41:02;;;;;;;6.28;2.80;;;21.60;87.70;;;;;;5101936;27;20028;-43
2021/06/22 12:43:47;;;;;;;5.15;2.88;;;21.40;84.00;;;;;;5102125;27;20222;-43
2021/06/22 12:46:15;;;;;;;9.45;2.88;;;21.50;88.70;;;;;;5106529;27;20518;-46
2021/06/22 12:48:42;;;;;;;6.72;2.95;;;21.70;89.20;;;;;;5097795;27;20020;-44
2021/06/22 12:51:09;;;;;;;3.40;2.50;;;21.80;87.60;;;;;;5097997;27;20384;-44
2021/06/22 12:53:55;;;;;;;7.15;2.65;;;21.90;86.60;;;;;;5081847;28;20533;-44